Time;durP1;ratioP1;P1;durP2;ratioP2;P2;SDS_P1;SDS_P2;PMS_P1;PMS_P2;Temp;Humidity;BMP_temperature;BMP_pressure;BME280_temperature;BME280_humidity;BME280_pressure;Samples;Min_cycle;Max_cycle;Signal;HPM_P1;HPM_P2
2024/01/08 00:08:09;;;;;;;13.7;7.1;;;;;;;-7.28;79.8;98985;;;;
2024/01/08 00:19:09;;;;;;;13.7;7.1;;;;;;;-7.35;79.97;98996.666666667;;;;
2024/01/08 00:29:10;;;;;;;13.7;7.1;;;;;;;-7.27;78.74;99001.666666667;;;;
2024/01/08 00:39:09;;;;;;;10.4;7.5;;;;;;;-7.64;79.34;99015;;;;
2024/01/08 00:50:10;;;;;;;10.4;7.5;;;;;;;-7.71;79.82;99021.666666667;;;;
2024/01/08 01:01:09;;;;;;;10.4;7.5;;;;;;;-7.7;80.72;99020;;;;
2024/01/08 01:11:09;;;;;;;9.2;6.4;;;;;;;-7.67;80.46;99033.333333333;;;;
2024/01/08 01:21:09;;;;;;;9.2;6.4;;;;;;;-7.6;80.87;99041.666666667;;;;
2024/01/08 01:31:09;;;;;;;9.2;6.4;;;;;;;-7.65;82.09;99058.333333333;;;;
2024/01/08 01:42:10;;;;;;;10.9;7.8;;;;;;;-7.91;80.45;99060;;;;
2024/01/08 01:52:09;;;;;;;10.9;7.8;;;;;;;-8.03;81.34;99066.666666667;;;;
2024/01/08 02:02:11;;;;;;;10.9;7.8;;;;;;;-8.22;81.41;99071.666666667;;;;
2024/01/08 02:13:10;;;;;;;12.2;6.7;;;;;;;-8.02;80.66;99076.666666667;;;;
2024/01/08 02:24:10;;;;;;;12.2;6.7;;;;;;;-8.3;81.41;99086.666666667;;;;
2024/01/08 02:34:09;;;;;;;13.2;7.4;;;;;;;-8.43;81.46;99094;;;;
2024/01/08 02:45:09;;;;;;;13.2;7.4;;;;;;;-8.29;81.38;99091.666666667;;;;
2024/01/08 02:55:10;;;;;;;13.2;7.4;;;;;;;-8.2;81.37;99098.333333333;;;;
2024/01/08 03:06:10;;;;;;;13.7;7.2;;;;;;;-8.21;80.78;99103.333333333;;;;
2024/01/08 03:17:10;;;;;;;13.7;7.2;;;;;;;-8.03;80.54;99116.666666667;;;;
2024/01/08 03:27:10;;;;;;;13.7;7.2;;;;;;;-7.94;80.19;99121.666666667;;;;
2024/01/08 03:38:10;;;;;;;13.8;7.3;;;;;;;-7.9;79.62;99126;;;;
2024/01/08 03:49:11;;;;;;;13.8;7.3;;;;;;;-8;79.74;99145;;;;
2024/01/08 03:59:10;;;;;;;13.8;7.3;;;;;;;-7.93;79.55;99141.666666667;;;;
2024/01/08 04:10:10;;;;;;;14.3;6.9;;;;;;;-8.44;79.11;99153.333333333;;;;
2024/01/08 04:21:10;;;;;;;14.3;6.9;;;;;;;-8.23;78.37;99162;;;;
2024/01/08 04:31:10;;;;;;;14.3;6.9;;;;;;;-8.41;79.22;99164;;;;
2024/01/08 04:42:10;;;;;;;13.5;8;;;;;;;-8.3;78.07;99190;;;;
2024/01/08 04:53:10;;;;;;;13.5;8;;;;;;;-8.08;77.71;99205;;;;
2024/01/08 05:04:10;;;;;;;9.7;6.5;;;;;;;-8.22;77.4;99213.333333333;;;;
2024/01/08 05:14:10;;;;;;;9.7;6.5;;;;;;;-8.51;77.88;99222;;;;
2024/01/08 05:24:10;;;;;;;9.7;6.5;;;;;;;-7.95;77.86;99234;;;;
2024/01/08 05:34:10;;;;;;;11.3;5.6;;;;;;;-8.35;77.4;99261.666666667;;;;
2024/01/08 05:45:10;;;;;;;11.3;5.6;;;;;;;-8.5;77.89;99262;;;;
2024/01/08 05:56:10;;;;;;;11.3;5.6;;;;;;;-8.45;77.54;99286.666666667;;;;
2024/01/08 06:06:10;;;;;;;13.2;8;;;;;;;-8.61;77.01;99305;;;;
2024/01/08 06:16:10;;;;;;;13.2;8;;;;;;;-8.91;77.52;99292;;;;
2024/01/08 06:26:10;;;;;;;13.2;8;;;;;;;-8.76;77.09;99310;;;;
2024/01/08 06:37:10;;;;;;;13.8;7.7;;;;;;;-8.46;75.95;99328;;;;
2024/01/08 06:47:10;;;;;;;13.8;7.7;;;;;;;-8.4;76.2;99332;;;;
2024/01/08 06:57:10;;;;;;;13.8;7.7;;;;;;;-8.05;75.73;99356;;;;
2024/01/08 07:08:10;;;;;;;10.2;5.6;;;;;;;-8.18;75.47;99368.333333333;;;;
2024/01/08 07:18:10;;;;;;;10.2;5.6;;;;;;;-8.2;75.09;99374;;;;
2024/01/08 07:28:10;;;;;;;10.2;5.6;;;;;;;-8.16;74.53;99398.333333333;;;;
2024/01/08 07:39:11;;;;;;;12.3;7.1;;;;;;;-8.13;73.44;99406.666666667;;;;
2024/01/08 07:50:10;;;;;;;12.3;7.1;;;;;;;-8.01;72.89;99425;;;;
2024/01/08 08:01:12;;;;;;;12.3;7.1;;;;;;;-7.96;72.4;99448.333333333;;;;
2024/01/08 08:12:10;;;;;;;13.8;7.5;;;;;;;-7.65;72.29;99458.333333333;;;;
2024/01/08 08:23:12;;;;;;;13.8;7.5;;;;;;;-7.67;72.6;99492;;;;
2024/01/08 08:34:10;;;;;;;11.2;7.2;;;;;;;-7.63;70.78;99495;;;;
2024/01/08 08:45:10;;;;;;;11.2;7.2;;;;;;;-7.08;69.55;99515;;;;
2024/01/08 08:55:10;;;;;;;11.2;7.2;;;;;;;-6.89;68.27;99516.666666667;;;;
2024/01/08 09:06:10;;;;;;;14.1;6.4;;;;;;;-6.45;68.47;99526.666666667;;;;
2024/01/08 09:17:10;;;;;;;14.1;6.4;;;;;;;-6.11;65.82;99531.666666667;;;;
2024/01/08 09:23:28;;;;;;;14.1;6.4;;;;;;;-5.84;65.31;99535;;;;
2024/01/08 09:33:28;;;;;;;11.3;7.1;;;;;;;-5.97;66.58;99548;;;;
2024/01/08 09:44:28;;;;;;;11.3;7.1;;;;;;;-5.8;63.9;99548.333333333;;;;
2024/01/08 09:54:28;;;;;;;11.3;7.1;;;;;;;-6.46;65.32;99543.333333333;;;;
2024/01/08 10:05:28;;;;;;;12.4;7.5;;;;;;;-5.93;65.82;99548.333333333;;;;
2024/01/08 10:15:28;;;;;;;12.4;7.5;;;;;;;-5.74;64.53;99558;;;;
2024/01/08 10:25:28;;;;;;;12.4;7.5;;;;;;;-5.49;64.18;99551.666666667;;;;
2024/01/08 10:36:28;;;;;;;12.1;8;;;;;;;-5.17;61.18;99550;;;;
2024/01/08 10:46:28;;;;;;;12.1;8;;;;;;;-5.47;62.96;99552;;;;
2024/01/08 10:56:28;;;;;;;12.1;8;;;;;;;-4.61;60.56;99563.333333333;;;;
2024/01/08 11:07:28;;;;;;;15.6;7.2;;;;;;;-4.46;61.02;99563.333333333;;;;
2024/01/08 11:17:28;;;;;;;15.6;7.2;;;;;;;-4.77;59.6;99556.666666667;;;;
2024/01/08 11:27:29;;;;;;;15.6;7.2;;;;;;;-4.68;59.24;99574;;;;
2024/01/08 11:38:28;;;;;;;14.6;9.4;;;;;;;-5.32;62.56;99583.333333333;;;;
2024/01/08 11:48:28;;;;;;;14.6;9.4;;;;;;;-4.67;61.72;99581.666666667;;;;
2024/01/08 11:58:28;;;;;;;14.6;9.4;;;;;;;-5.29;61.11;99608.333333333;;;;
2024/01/08 12:08:30;;;;;;;14.1;7.4;;;;;;;-5.46;59.92;99615;;;;
2024/01/08 12:19:28;;;;;;;14.1;7.4;;;;;;;-5.22;61.97;99623.333333333;;;;
2024/01/08 12:30:28;;;;;;;14.1;7.4;;;;;;;-5.79;63.06;99636.666666667;;;;
2024/01/08 12:40:28;;;;;;;13.2;7.4;;;;;;;-4.71;62.01;99638.333333333;;;;
2024/01/08 12:50:28;;;;;;;13.2;7.4;;;;;;;-4.95;61.38;99660;;;;
2024/01/08 13:00:28;;;;;;;13.2;7.4;;;;;;;-6.12;64.49;99675;;;;
2024/01/08 13:11:28;;;;;;;58.9;32;;;;;;;-6;65.76;99681.666666667;;;;
2024/01/08 13:21:28;;;;;;;58.9;32;;;;;;;-6.51;66.99;99695;;;;
2024/01/08 13:32:28;;;;;;;17.5;9.1;;;;;;;-6.68;66.73;99711.666666667;;;;
2024/01/08 13:42:28;;;;;;;17.5;9.1;;;;;;;-7.28;68.21;99731.666666667;;;;
2024/01/08 13:53:28;;;;;;;17.5;9.1;;;;;;;-7.5;68.53;99751.666666667;;;;
2024/01/08 14:03:28;;;;;;;12.8;8.4;;;;;;;-7.49;68.85;99761.666666667;;;;
2024/01/08 14:14:28;;;;;;;12.8;8.4;;;;;;;-8.18;69.85;99780;;;;
2024/01/08 14:24:28;;;;;;;12.8;8.4;;;;;;;-8.11;69.72;99788.333333333;;;;
2024/01/08 14:35:28;;;;;;;11.6;7.9;;;;;;;-8.46;70.52;99811.666666667;;;;
2024/01/08 14:45:28;;;;;;;11.6;7.9;;;;;;;-8.68;69.94;99821.666666667;;;;
2024/01/08 14:55:28;;;;;;;11.6;7.9;;;;;;;-9.04;70.34;99831.666666667;;;;
2024/01/08 15:06:28;;;;;;;16.7;10.3;;;;;;;-9.44;71.28;99848.333333333;;;;
2024/01/08 15:17:28;;;;;;;16.7;10.3;;;;;;;-9.69;71.31;99860;;;;
2024/01/08 15:28:28;;;;;;;16.7;10.3;;;;;;;-10.18;72.63;99878.333333333;;;;
2024/01/08 15:38:28;;;;;;;17.7;8.9;;;;;;;-10.37;73.33;99893.333333333;;;;
2024/01/08 15:49:28;;;;;;;17.7;8.9;;;;;;;-10.77;74.91;99901.666666667;;;;
2024/01/08 16:00:28;;;;;;;10.6;7;;;;;;;-10.83;75.6;99918.333333333;;;;
2024/01/08 16:11:28;;;;;;;10.6;7;;;;;;;-10.97;76.05;99935;;;;
2024/01/08 16:22:28;;;;;;;10.6;7;;;;;;;-11.23;76.27;99951.666666667;;;;
2024/01/08 16:32:28;;;;;;;22.2;15.2;;;;;;;-11.39;76.56;99960;;;;
2024/01/08 16:43:29;;;;;;;22.2;15.2;;;;;;;-11.53;76.92;99980;;;;
2024/01/08 16:54:28;;;;;;;22.2;15.2;;;;;;;-11.69;76.93;99998.333333333;;;;
2024/01/08 17:05:29;;;;;;;24.5;13.3;;;;;;;-11.82;76.99;100008.33333333;;;;
2024/01/08 17:15:28;;;;;;;24.5;13.3;;;;;;;-11.93;77.29;100026.66666667;;;;
2024/01/08 17:26:28;;;;;;;24.5;13.3;;;;;;;-12.01;77.2;100033.33333333;;;;
2024/01/08 17:36:29;;;;;;;44.9;23.6;;;;;;;-12.03;77.48;100046.66666667;;;;
2024/01/08 17:46:29;;;;;;;44.9;23.6;;;;;;;-12.07;77.59;100061.66666667;;;;
2024/01/08 17:57:28;;;;;;;44.9;23.6;;;;;;;-12.11;78.05;100061.66666667;;;;
2024/01/08 18:07:28;;;;;;;24.5;15.6;;;;;;;-12.15;77.97;100060;;;;
2024/01/08 18:18:28;;;;;;;24.5;15.6;;;;;;;-12.3;77.85;100070;;;;
2024/01/08 18:28:28;;;;;;;24.5;15.6;;;;;;;-12.4;78.34;100091.66666667;;;;
2024/01/08 18:39:28;;;;;;;41.2;21.2;;;;;;;-12.39;77.81;100098.33333333;;;;
2024/01/08 18:50:28;;;;;;;41.2;21.2;;;;;;;-12.2;77.72;100111.66666667;;;;
2024/01/08 19:01:28;;;;;;;39.7;21;;;;;;;-12.26;78.59;100110;;;;
2024/01/08 19:11:28;;;;;;;39.7;21;;;;;;;-11.8;79.76;100125;;;;
2024/01/08 19:22:28;;;;;;;39.7;21;;;;;;;-11.34;79.28;100135;;;;
2024/01/08 19:32:28;;;;;;;34.7;20.5;;;;;;;-10.96;78.54;100156.66666667;;;;
2024/01/08 19:42:28;;;;;;;34.7;20.5;;;;;;;-10.8;77.46;100163.33333333;;;;
2024/01/08 19:53:28;;;;;;;34.7;20.5;;;;;;;-11.23;78.53;100183.33333333;;;;
2024/01/08 20:04:28;;;;;;;41.1;22;;;;;;;-10.58;77.61;100196.66666667;;;;
2024/01/08 20:14:30;;;;;;;41.1;22;;;;;;;-10.62;77.35;100205;;;;
2024/01/08 20:25:28;;;;;;;41.1;22;;;;;;;-10.73;78.42;100218.33333333;;;;
2024/01/08 20:35:28;;;;;;;32.5;18.2;;;;;;;-10.79;78.58;100218.33333333;;;;
2024/01/08 20:45:28;;;;;;;32.5;18.2;;;;;;;-10.81;78.43;100225;;;;
2024/01/08 20:55:28;;;;;;;32.5;18.2;;;;;;;-11.05;77.85;100240;;;;
2024/01/08 21:06:28;;;;;;;22.1;13.5;;;;;;;-11.48;78.17;100241.66666667;;;;
2024/01/08 21:17:28;;;;;;;22.1;13.5;;;;;;;-11.72;78.04;100246.66666667;;;;
2024/01/08 21:28:28;;;;;;;22.1;13.5;;;;;;;-11.98;78.27;100253.33333333;;;;
2024/01/08 21:38:30;;;;;;;18.8;11.5;;;;;;;-12.15;78.53;100250;;;;
2024/01/08 21:49:28;;;;;;;18.8;11.5;;;;;;;-12.38;78.74;100253.33333333;;;;
2024/01/08 21:59:28;;;;;;;22.9;13.1;;;;;;;-12.4;78.23;100256.66666667;;;;
2024/01/08 22:10:28;;;;;;;22.9;13.1;;;;;;;-12.66;79.09;100256.66666667;;;;
2024/01/08 22:20:28;;;;;;;22.9;13.1;;;;;;;-12.61;78.66;100270;;;;
2024/01/08 22:31:28;;;;;;;21.5;10.8;;;;;;;-12.53;78.42;100286.66666667;;;;
2024/01/08 22:41:28;;;;;;;21.5;10.8;;;;;;;-12.44;78.65;100301.66666667;;;;
2024/01/08 22:52:28;;;;;;;21.5;10.8;;;;;;;-12.18;78.26;100308.33333333;;;;
2024/01/08 23:02:28;;;;;;;26;12.3;;;;;;;-12.35;78.49;100315;;;;
2024/01/08 23:13:28;;;;;;;26;12.3;;;;;;;-12.89;79.59;100316.66666667;;;;
2024/01/08 23:23:28;;;;;;;26;12.3;;;;;;;-12.66;78.06;100325;;;;
2024/01/08 23:34:28;;;;;;;23.7;12;;;;;;;-12.94;77.72;100330;;;;
2024/01/08 23:44:28;;;;;;;23.7;12;;;;;;;-12.92;77.8;100336.66666667;;;;
2024/01/08 23:55:30;;;;;;;23.7;12;;;;;;;-12.89;77.18;100348.33333333;;;;
